Airfield :
LOGIN :

Register | Disclaimer

   EN    FR    IT 

 










Legend :    VFR   Marginal VFR   IFR   Intensive IFR   Very Intensive IFR
Visi :
Ceiling :
>= 8 km
>= 3000ft
5 to 8 km
1000 to 3000 ft
1500m to 5 km
500 to 1000 ft
800 to 1500m
200 to 500 ft
< 800m
< 200 ft
Symbols :   Thunderstorms  Fog  Heavy snow  Heavy precipitations  Wind > 20 kt
SIGMETs :     Misc.  Thunderstorms  Icing  Turbulence  Mountain Waves  Volcanic Ashes






- Airport Elevation : 463 ft
- IATA code : SZY
- AIRPORT CLOSED.


EPSY - Szczytno

CURRENT METAR :
  • 251930Z VRB02KT 4400 BR NSC 11/11 Q1014

EXPIRED METARs :
  • 251900Z 19003KT 8000 FEW032 11/11 Q1014
  • 251830Z VRB02KT 9999 FEW033 11/11 Q1014
  • 251800Z VRB01KT CAVOK 12/12 Q1013
  • 251730Z 31003KT CAVOK 12/12 Q1013
  • 251700Z 26003KT 230V310 9999 -RA SCT040 12/12 Q1013

TAF TAF EPSY
Valid from the 25 at 18:00 until the 26 at 03:00 UTC


251730Z 2518/2603 VRB02KT CAVOK
PROB30
TEMPO 2518/2520 -SHRA BKN030CB
PROB40
TEMPO 2519/2603 4000 BR



MET'MAP, your aeronautical weather chart ! - Copyright ORBIFLY December 2007 - Disclaimer

ORBIFLY MET'MAP TEAM :

Programming & Development : Alexandra Zaïnal
Original concept : Baudouin d'Aumeries
Technical & hardware support : Manuel Goepfert
Assistance : Marc-Olivier Méhu

Contact : metmap@orbifly.com




SOURCES & CREDITS :

   NOAA